Time;durP1;ratioP1;P1;durP2;ratioP2;P2;SDS_P1;SDS_P2;PMS_P1;PMS_P2;Temp;Humidity;BMP_temperature;BMP_pressure;BME280_temperature;BME280_humidity;BME280_pressure;Samples;Min_cycle;Max_cycle;Signal;HPM_P1;HPM_P2
2023/10/25 00:01:24;;;;;;;5.32;1.52;;;;;;;0.93;50.33;99907.53;5114844;28;20034;-59
2023/10/25 00:03:50;;;;;;;3.72;1.80;;;;;;;1.11;49.93;99891.91;5114714;28;20036;-59
2023/10/25 00:06:15;;;;;;;2.22;1.67;;;;;;;0.91;50.79;99885.66;5114462;28;20031;-60
2023/10/25 00:08:40;;;;;;;1.92;1.30;;;;;;;1.10;49.78;99891.06;5115082;28;20023;-60
2023/10/25 00:11:07;;;;;;;4.32;1.73;;;;;;;1.03;49.77;99863.22;5114429;28;20456;-62
2023/10/25 00:13:34;;;;;;;4.82;1.85;;;;;;;0.85;50.55;99886.78;5113799;28;20118;-58
2023/10/25 00:16:00;;;;;;;5.22;1.77;;;;;;;0.79;50.52;99880.88;5113493;28;20035;-58
2023/10/25 00:18:27;;;;;;;2.15;1.52;;;;;;;0.78;50.85;99887.91;5114371;28;20123;-57
2023/10/25 00:20:53;;;;;;;2.95;1.77;;;;;;;0.88;50.97;99901.59;5114437;28;20465;-61
2023/10/25 00:23:19;;;;;;;2.95;1.35;;;;;;;1.02;50.07;99902.84;5114026;28;20046;-59
2023/10/25 00:25:49;;;;;;;2.95;1.45;;;;;;;1.00;49.61;99906.41;5114314;28;20058;-60
2023/10/25 00:28:16;;;;;;;1.65;1.17;;;;;;;0.94;49.93;99908.41;5114245;28;20462;-58
2023/10/25 00:30:41;;;;;;;2.72;1.23;;;;;;;0.96;50.22;99904.78;5113171;28;20366;-60
2023/10/25 00:33:07;;;;;;;2.85;1.25;;;;;;;1.00;50.07;99909.03;5113125;28;20023;-61
2023/10/25 00:35:32;;;;;;;2.58;1.30;;;;;;;0.63;49.68;99831.41;5114655;27;20486;-59
2023/10/25 00:37:58;;;;;;;2.28;1.40;;;;;;;1.00;49.52;99897.63;5113940;28;20438;-61
2023/10/25 00:40:23;;;;;;;2.42;1.40;;;;;;;0.98;49.61;99902.09;5113909;28;20111;-59
2023/10/25 00:42:49;;;;;;;3.42;1.25;;;;;;;1.14;49.80;99919.03;5113927;28;20507;-60
2023/10/25 00:45:15;;;;;;;5.10;1.30;;;;;;;1.35;48.14;99911.16;5113849;28;20031;-61
2023/10/25 00:47:43;;;;;;;3.38;1.58;;;;;;;1.13;48.61;99914.69;5113975;28;20024;-58
2023/10/25 00:50:10;;;;;;;3.20;1.55;;;;;;;0.94;49.55;99927.72;5114078;28;20100;-61
2023/10/25 00:52:38;;;;;;;3.17;1.42;;;;;;;0.96;49.08;99920.59;5113806;28;20316;-59
2023/10/25 00:55:04;;;;;;;2.33;1.23;;;;;;;0.87;49.49;99913.06;5114026;28;20098;-57
2023/10/25 00:57:32;;;;;;;1.90;1.33;;;;;;;0.78;50.07;99916.06;5113911;28;20038;-58
2023/10/25 00:59:59;;;;;;;4.40;1.40;;;;;;;0.83;49.65;99928.13;5113859;28;20027;-58
2023/10/25 01:02:25;;;;;;;3.10;1.63;;;;;;;0.90;49.37;99920.84;5095465;28;20031;-58
2023/10/25 01:04:51;;;;;;;2.35;1.30;;;;;;;0.79;49.38;99907.25;5113975;28;20050;-60
2023/10/25 01:07:16;;;;;;;1.70;1.40;;;;;;;0.82;49.44;99920.28;5113681;28;20100;-61
2023/10/25 01:09:42;;;;;;;6.50;1.88;;;;;;;0.82;49.69;99909.75;5113553;28;20040;-62
2023/10/25 01:12:08;;;;;;;3.00;1.30;;;;;;;0.76;49.78;99917.91;5112935;28;20115;-60
2023/10/25 01:14:33;;;;;;;3.28;1.77;;;;;;;0.77;49.63;99922.25;5113742;28;20053;-58
2023/10/25 01:16:59;;;;;;;2.25;1.48;;;;;;;0.75;49.52;99911.75;5112657;28;20055;-57
2023/10/25 01:19:24;;;;;;;2.22;1.50;;;;;;;0.79;49.77;99904.59;5113182;28;20441;-57
2023/10/25 01:21:50;;;;;;;4.10;1.88;;;;;;;0.78;49.93;99898.47;5113045;28;20035;-59
2023/10/25 01:24:16;;;;;;;4.05;1.63;;;;;;;0.94;49.83;99900.50;5113420;28;20059;-58
2023/10/25 01:26:42;;;;;;;2.50;1.40;;;;;;;0.95;50.26;99903.06;5113756;28;20338;-61
2023/10/25 01:29:07;;;;;;;3.83;1.80;;;;;;;0.95;50.03;99896.94;5113385;28;20031;-59
2023/10/25 01:31:33;;;;;;;2.20;1.50;;;;;;;1.03;50.19;99905.41;5113238;28;20106;-61
2023/10/25 01:33:59;;;;;;;3.38;1.75;;;;;;;0.99;49.72;99903.81;5113410;28;20042;-57
2023/10/25 01:36:24;;;;;;;3.22;1.90;;;;;;;0.99;49.58;99915.22;5113498;28;20028;-60
2023/10/25 01:38:50;;;;;;;5.38;1.80;;;;;;;1.00;49.52;99911.66;5113076;28;20187;-59
2023/10/25 01:41:18;;;;;;;2.58;1.63;;;;;;;0.84;49.65;99879.78;5113295;28;20118;-60
2023/10/25 01:43:43;;;;;;;3.67;1.90;;;;;;;1.10;49.90;99921.84;5113385;28;20028;-59
2023/10/25 01:46:09;;;;;;;4.63;2.00;;;;;;;1.06;49.45;99917.63;5113549;28;20039;-59
2023/10/25 01:48:39;;;;;;;2.10;1.67;;;;;;;1.00;49.49;99900.25;5112866;28;20049;-60
2023/10/25 01:51:09;;;;;;;3.97;2.10;;;;;;;1.05;49.45;99919.38;5112819;28;20442;-60
2023/10/25 01:53:34;;;;;;;3.38;1.90;;;;;;;1.05;49.42;99908.81;5113303;28;20032;-59
2023/10/25 01:56:00;;;;;;;4.45;1.63;;;;;;;1.08;49.30;99913.13;5113461;28;20038;-61
2023/10/25 01:58:26;;;;;;;3.58;1.80;;;;;;;1.17;49.13;99912.75;5113117;28;20102;-60
2023/10/25 02:00:52;;;;;;;4.13;1.85;;;;;;;1.20;49.68;99922.34;5113024;28;20027;-60
2023/10/25 02:03:17;;;;;;;3.30;1.90;;;;;;;1.21;49.38;99926.69;5112165;28;20030;-59
2023/10/25 02:05:43;;;;;;;4.97;1.85;;;;;;;1.24;48.76;99930.06;5113260;28;20123;-60
2023/10/25 02:08:09;;;;;;;4.20;1.88;;;;;;;1.19;49.00;99920.63;5113312;28;20024;-59
2023/10/25 02:10:35;;;;;;;4.78;1.60;;;;;;;1.09;49.18;99926.28;5112727;28;20111;-55
2023/10/25 02:13:00;;;;;;;2.28;1.67;;;;;;;1.03;49.38;99918.59;5112890;28;20065;-61
2023/10/25 02:15:27;;;;;;;4.18;2.03;;;;;;;0.79;49.38;99870.34;5112744;28;20039;-58
2023/10/25 02:17:53;;;;;;;5.05;2.08;;;;;;;1.07;49.75;99920.16;5112048;28;20039;-60
2023/10/25 02:20:19;;;;;;;3.38;2.08;;;;;;;0.95;50.32;99908.34;5112461;28;20042;-57
2023/10/25 02:22:45;;;;;;;4.22;2.00;;;;;;;1.14;49.98;99918.16;5113253;28;20020;-59
2023/10/25 02:25:10;;;;;;;3.22;1.90;;;;;;;1.05;50.00;99913.25;5115806;28;20047;-60
2023/10/25 02:27:36;;;;;;;3.20;2.30;;;;;;;1.02;50.27;99913.38;5115689;28;20054;-58
2023/10/25 02:30:02;;;;;;;5.63;2.05;;;;;;;1.35;49.21;99915.56;5116818;28;20499;-57
2023/10/25 02:32:31;;;;;;;3.90;2.17;;;;;;;1.29;49.42;99914.91;5116370;28;20036;-59
2023/10/25 02:34:57;;;;;;;5.97;2.28;;;;;;;1.14;49.64;99907.59;5116405;28;20445;-61
2023/10/25 02:37:22;;;;;;;3.42;2.20;;;;;;;1.35;49.30;99919.09;5116637;28;20418;-59
2023/10/25 02:39:48;;;;;;;4.03;2.38;;;;;;;1.26;48.97;99917.69;5116435;28;20080;-58
2023/10/25 02:42:13;;;;;;;5.28;2.20;;;;;;;1.09;49.14;99917.50;5115610;28;20077;-60
2023/10/25 02:44:39;;;;;;;6.13;2.20;;;;;;;0.92;49.26;99897.06;5116882;28;20047;-60
2023/10/25 02:47:06;;;;;;;5.30;2.30;;;;;;;0.83;49.91;99909.66;5116230;28;20031;-60
2023/10/25 02:49:33;;;;;;;7.82;2.40;;;;;;;0.80;50.31;99928.25;5116299;28;20035;-58
2023/10/25 02:51:58;;;;;;;3.65;2.20;;;;;;;0.73;50.09;99902.22;5115475;28;20058;-59
2023/10/25 02:54:24;;;;;;;1.45;1.05;;;;;;;1.13;49.54;99909.41;5116187;28;20430;-60
2023/10/25 02:56:49;;;;;;;2.95;2.28;;;;;;;1.14;48.86;99912.88;5116115;28;20049;-58
2023/10/25 02:59:15;;;;;;;4.55;1.65;;;;;;;1.07;49.42;99921.97;5115293;28;20028;-62
2023/10/25 03:01:40;;;;;;;6.57;2.30;;;;;;;0.89;49.81;99913.84;5116363;28;20020;-60
2023/10/25 03:04:06;;;;;;;4.47;2.10;;;;;;;1.03;49.39;99923.00;5115930;28;20059;-61
2023/10/25 03:06:31;;;;;;;5.10;2.22;;;;;;;0.90;49.91;99936.66;5115705;28;20042;-61
2023/10/25 03:08:57;;;;;;;7.35;2.40;;;;;;;0.57;50.93;99940.53;5115929;28;20023;-59
2023/10/25 03:11:22;;;;;;;3.30;2.08;;;;;;;0.62;51.27;99947.41;5097943;28;20019;-58
2023/10/25 03:13:48;;;;;;;2.47;1.92;;;;;;;0.67;51.08;99962.13;5115806;28;20070;-60
2023/10/25 03:16:14;;;;;;;4.38;2.08;;;;;;;0.69;50.60;99947.09;5115931;27;20027;-61
2023/10/25 03:18:39;;;;;;;5.05;2.10;;;;;;;0.68;50.11;99926.94;5115813;28;20067;-61
2023/10/25 03:21:05;;;;;;;5.13;1.83;;;;;;;0.88;50.32;99949.03;5115095;28;20042;-60
2023/10/25 03:23:31;;;;;;;3.28;2.20;;;;;;;0.87;50.28;99952.59;5115328;28;20028;-59
2023/10/25 03:26:05;;;;;;;4.13;1.85;;;;;;;1.07;49.88;99967.63;5115441;28;20059;-62
2023/10/25 03:28:33;;;;;;;5.57;1.88;;;;;;;1.03;49.44;99944.09;5114696;28;20052;-57
2023/10/25 03:31:06;;;;;;;4.65;2.33;;;;;;;1.12;49.17;99959.56;5114948;28;20043;-59
2023/10/25 03:33:32;;;;;;;2.78;1.90;;;;;;;0.87;49.51;99952.59;5115337;28;20051;-60
2023/10/25 03:35:57;;;;;;;3.78;2.10;;;;;;;0.83;50.34;99958.91;5113754;28;20043;-61
2023/10/25 03:38:23;;;;;;;4.60;2.22;;;;;;;0.79;50.03;99962.59;5115433;28;20094;-60
2023/10/25 03:40:59;;;;;;;3.60;2.05;;;;;;;1.04;49.24;99956.38;5115048;28;20089;-60
2023/10/25 03:43:25;;;;;;;2.50;1.83;;;;;;;0.83;49.33;99953.63;5114636;28;20108;-60
2023/10/25 03:45:50;;;;;;;3.35;1.98;;;;;;;0.66;49.45;99934.03;5114611;28;20388;-60
2023/10/25 03:48:16;;;;;;;2.95;1.83;;;;;;;0.75;49.65;99963.63;5114019;28;20027;-58
2023/10/25 03:50:41;;;;;;;5.28;1.95;;;;;;;0.81;49.94;99966.88;5114641;28;20031;-60
2023/10/25 03:53:07;;;;;;;5.97;2.40;;;;;;;0.76;49.51;99958.28;5114564;28;20035;-60
2023/10/25 03:55:32;;;;;;;2.22;1.75;;;;;;;0.89;48.64;99963.94;5113204;28;20050;-58
2023/10/25 03:57:58;;;;;;;4.47;1.70;;;;;;;1.12;47.00;99976.25;5113737;28;20465;-62
2023/10/25 04:00:23;;;;;;;1.45;1.02;;;;;;;1.17;46.80;99983.97;5114872;28;20034;-59
2023/10/25 04:02:49;;;;;;;2.75;1.65;;;;;;;0.72;46.93;99951.41;5114765;28;20027;-62
2023/10/25 04:05:14;;;;;;;3.42;1.50;;;;;;;0.59;48.16;99974.72;5114043;28;20101;-57
2023/10/25 04:07:40;;;;;;;4.40;1.80;;;;;;;0.48;48.06;99987.41;5096504;28;20127;-58
2023/10/25 04:10:06;;;;;;;2.35;1.50;;;;;;;0.38;48.75;99968.47;5114710;28;20085;-60
2023/10/25 04:12:32;;;;;;;5.90;1.80;;;;;;;0.59;48.55;100001.06;5113647;28;20579;-60
2023/10/25 04:14:57;;;;;;;3.65;1.88;;;;;;;0.47;49.11;99976.03;5114584;27;20138;-59
2023/10/25 04:17:23;;;;;;;3.08;1.80;;;;;;;0.55;49.07;100010.84;5113464;28;20031;-59
2023/10/25 04:19:48;;;;;;;2.78;1.80;;;;;;;0.66;48.88;100013.09;5114777;28;20033;-59
2023/10/25 04:22:14;;;;;;;3.83;1.70;;;;;;;0.64;49.10;100012.31;5113355;28;20350;-57
2023/10/25 04:24:40;;;;;;;4.65;1.70;;;;;;;0.74;48.74;100012.81;5114625;28;20142;-60
2023/10/25 04:27:05;;;;;;;2.92;1.70;;;;;;;0.68;49.40;100018.34;5113068;28;20126;-60
2023/10/25 04:29:31;;;;;;;2.58;1.67;;;;;;;0.70;49.23;100016.50;5113182;28;20091;-57
2023/10/25 04:31:56;;;;;;;3.10;2.00;;;;;;;0.69;49.41;100020.88;5114357;28;20035;-57
2023/10/25 04:34:22;;;;;;;3.45;2.00;;;;;;;0.67;49.67;100024.53;5113742;28;20110;-61
2023/10/25 04:36:48;;;;;;;2.83;1.88;;;;;;;0.67;49.75;100006.06;5112729;28;20024;-60
2023/10/25 04:39:13;;;;;;;2.75;1.90;;;;;;;0.68;49.96;100011.28;5113912;28;20066;-59
2023/10/25 04:41:40;;;;;;;3.80;2.05;;;;;;;0.74;49.91;100015.47;5114099;27;20457;-62
2023/10/25 04:44:06;;;;;;;2.50;1.98;;;;;;;0.50;49.84;99980.34;5113933;28;20027;-58
2023/10/25 04:46:31;;;;;;;3.85;2.15;;;;;;;0.75;49.99;100021.59;5113159;28;20030;-61
2023/10/25 04:48:57;;;;;;;4.35;2.10;;;;;;;0.80;49.83;100024.94;5114331;28;20046;-58
2023/10/25 04:51:22;;;;;;;4.97;1.90;;;;;;;0.91;49.56;100028.00;5114247;28;20116;-59
2023/10/25 04:53:48;;;;;;;5.72;2.10;;;;;;;0.82;49.10;100023.94;5114170;28;20039;-61
2023/10/25 04:56:13;;;;;;;4.93;2.38;;;;;;;0.84;49.82;100047.63;5113944;28;20438;-61
2023/10/25 04:58:39;;;;;;;3.35;2.03;;;;;;;0.87;49.61;100039.59;5112972;28;20031;-60
2023/10/25 05:01:12;;;;;;;4.90;2.40;;;;;;;0.94;49.55;100050.78;5113657;28;20020;-62
2023/10/25 05:03:38;;;;;;;5.35;2.50;;;;;;;0.87;49.52;100039.59;5113548;28;20369;-61
2023/10/25 05:06:06;;;;;;;3.65;2.13;;;;;;;0.95;50.30;100055.97;5113708;28;20114;-63
2023/10/25 05:08:31;;;;;;;8.13;2.15;;;;;;;0.92;49.98;100050.81;5113719;28;20035;-61
2023/10/25 05:11:01;;;;;;;4.78;2.25;;;;;;;0.97;50.17;100054.16;5113083;28;20345;-62
2023/10/25 05:13:27;;;;;;;3.75;2.10;;;;;;;0.95;49.89;100055.97;5113124;28;20389;-60
2023/10/25 05:15:53;;;;;;;5.07;2.03;;;;;;;0.71;49.68;100005.03;5113554;28;20030;-62
2023/10/25 05:18:18;;;;;;;5.80;2.30;;;;;;;0.94;49.57;100051.63;5113501;28;20327;-60
2023/10/25 05:20:44;;;;;;;4.38;2.40;;;;;;;0.95;49.75;100055.97;5112073;28;20025;-59
2023/10/25 05:23:10;;;;;;;7.03;2.60;;;;;;;1.04;49.49;100059.22;5113420;28;20050;-58
2023/10/25 05:25:36;;;;;;;7.47;2.38;;;;;;;1.07;48.95;100057.28;5113501;28;20058;-62
2023/10/25 05:28:02;;;;;;;4.60;2.95;;;;;;;0.77;49.54;100046.97;5113052;27;20458;-57
2023/10/25 05:30:28;;;;;;;10.38;2.90;;;;;;;0.94;49.48;100075.34;5113031;28;20031;-60
2023/10/25 05:33:00;;;;;;;4.28;2.88;;;;;;;1.02;48.73;100068.94;5111909;28;20031;-62
2023/10/25 05:35:25;;;;;;;6.25;2.53;;;;;;;0.83;49.16;100062.56;5113233;28;20034;-59
2023/10/25 05:37:51;;;;;;;3.33;2.28;;;;;;;0.89;48.79;100066.75;5113298;28;20032;-58
2023/10/25 05:40:17;;;;;;;4.82;2.13;;;;;;;0.95;47.57;100078.84;5113100;28;20364;-60
2023/10/25 05:42:47;;;;;;;3.75;2.40;;;;;;;0.83;48.67;100085.44;5112134;28;20043;-58
2023/10/25 05:45:14;;;;;;;6.03;2.25;;;;;;;0.63;49.35;100079.09;5113455;28;20311;-58
2023/10/25 05:47:40;;;;;;;3.97;2.20;;;;;;;0.45;48.82;100029.69;5113231;28;20039;-60
2023/10/25 05:50:07;;;;;;;5.97;2.25;;;;;;;0.42;48.92;100035.94;5112760;28;20488;-59
2023/10/25 05:52:33;;;;;;;8.63;2.33;;;;;;;0.74;48.24;100046.25;5112853;28;20034;-59
2023/10/25 05:54:59;;;;;;;9.15;2.30;;;;;;;0.80;48.83;100082.91;5113204;28;20027;-58
2023/10/25 05:57:25;;;;;;;4.90;2.40;;;;;;;0.97;47.73;100091.09;5112281;28;20030;-63
2023/10/25 05:59:51;;;;;;;3.35;2.00;;;;;;;0.96;47.94;100084.06;5117315;28;20035;-59
2023/10/25 06:02:22;;;;;;;4.53;2.20;;;;;;;0.90;48.11;100084.28;5116902;28;20032;-60
2023/10/25 06:04:49;;;;;;;3.85;2.42;;;;;;;0.90;48.22;100092.19;5117164;28;20047;-60
2023/10/25 06:07:16;;;;;;;7.20;2.55;;;;;;;0.92;48.49;100100.91;5117053;27;20028;-60
2023/10/25 06:09:42;;;;;;;4.78;2.55;;;;;;;0.89;48.41;100093.13;5116873;28;20040;-62
2023/10/25 06:12:09;;;;;;;2.88;2.30;;;;;;;0.93;48.71;100097.34;5116881;27;20349;-61
2023/10/25 06:14:34;;;;;;;5.72;2.92;;;;;;;1.11;48.32;100100.25;5116053;28;20034;-61
2023/10/25 06:17:01;;;;;;;6.90;2.70;;;;;;;1.12;48.07;100099.31;5116306;28;20106;-58
2023/10/25 06:19:27;;;;;;;4.82;3.00;;;;;;;1.17;48.33;100110.56;5115797;28;20071;-62
2023/10/25 06:21:54;;;;;;;4.28;2.60;;;;;;;1.14;47.74;100103.63;5116725;28;20032;-60
2023/10/25 06:24:20;;;;;;;6.55;2.80;;;;;;;1.31;47.17;100106.56;5116308;28;20066;-62
2023/10/25 06:26:45;;;;;;;3.90;2.80;;;;;;;1.19;47.78;100113.16;5116554;28;20358;-58
2023/10/25 06:29:11;;;;;;;7.00;2.90;;;;;;;1.24;47.38;100112.06;5116468;28;20034;-60
2023/10/25 06:31:37;;;;;;;8.18;2.95;;;;;;;1.19;47.22;100111.34;5116235;28;20393;-60
2023/10/25 06:34:03;;;;;;;9.23;2.55;;;;;;;1.13;47.78;100111.59;5116134;27;20039;-58
2023/10/25 06:36:30;;;;;;;8.38;2.55;;;;;;;1.13;47.88;100116.88;5115599;28;20430;-56
2023/10/25 06:38:56;;;;;;;7.65;2.75;;;;;;;1.16;47.54;100113.28;5116513;28;20462;-56
2023/10/25 06:41:22;;;;;;;6.47;2.97;;;;;;;0.90;48.01;100070.25;5116281;28;20035;-56
2023/10/25 06:43:48;;;;;;;7.20;3.20;;;;;;;1.21;47.63;100116.59;5116525;28;20082;-58
2023/10/25 06:46:14;;;;;;;7.35;2.70;;;;;;;1.33;46.29;100110.88;5115086;28;20425;-57
2023/10/25 06:48:40;;;;;;;4.90;3.03;;;;;;;1.39;46.23;100134.38;5115127;28;20593;-60
2023/10/25 06:51:06;;;;;;;8.65;3.35;;;;;;;1.28;46.06;100110.16;5116023;28;20019;-60
2023/10/25 06:53:33;;;;;;;18.08;3.15;;;;;;;1.11;46.89;100105.50;5115826;28;20161;-60
2023/10/25 06:55:59;;;;;;;6.60;2.92;;;;;;;1.22;46.63;100113.91;5115980;28;20028;-63
2023/10/25 06:58:26;;;;;;;6.57;3.15;;;;;;;1.26;46.25;100112.88;5116190;28;20123;-61
2023/10/25 07:00:55;;;;;;;6.93;3.20;;;;;;;1.33;46.10;100118.78;5116158;28;20031;-62
2023/10/25 07:03:26;;;;;;;4.38;2.70;;;;;;;1.24;46.35;100119.97;5115954;28;20110;-61
2023/10/25 07:05:55;;;;;;;5.72;2.80;;;;;;;1.25;46.58;100126.97;5115617;28;20034;-60
2023/10/25 07:08:21;;;;;;;10.70;3.42;;;;;;;1.38;46.50;100126.50;5115659;28;20038;-59
2023/10/25 07:10:47;;;;;;;6.97;3.10;;;;;;;1.55;45.89;100128.50;5114837;28;20035;-58
2023/10/25 07:13:13;;;;;;;6.22;3.10;;;;;;;1.54;45.67;100134.69;5115640;28;20115;-61
2023/10/25 07:15:38;;;;;;;6.75;2.85;;;;;;;1.49;46.35;100137.53;5115688;28;20411;-59
2023/10/25 07:18:04;;;;;;;4.32;2.60;;;;;;;1.59;45.37;100135.41;5115732;28;20027;-61
2023/10/25 07:20:31;;;;;;;5.53;2.97;;;;;;;1.53;45.57;100135.63;5115819;28;20035;-61
2023/10/25 07:22:56;;;;;;;5.68;2.90;;;;;;;1.36;46.22;100128.34;5116001;28;20093;-60
2023/10/25 07:25:22;;;;;;;3.50;2.35;;;;;;;1.64;45.32;100143.13;5115418;28;20051;-61
2023/10/25 07:27:48;;;;;;;5.10;2.63;;;;;;;1.66;45.29;100134.25;5097320;28;20035;-61
2023/10/25 07:30:13;;;;;;;4.03;2.67;;;;;;;1.58;45.33;100142.44;5115675;28;20430;-57
2023/10/25 07:32:40;;;;;;;4.47;3.40;;;;;;;1.66;44.96;100126.31;5115601;28;20109;-58
2023/10/25 07:35:05;;;;;;;6.28;3.28;;;;;;;1.65;45.20;100134.28;5114147;28;20035;-60
2023/10/25 07:37:32;;;;;;;4.72;2.70;;;;;;;1.80;44.74;100132.81;5115148;28;20130;-59
2023/10/25 07:39:57;;;;;;;7.00;2.90;;;;;;;1.76;44.02;100120.66;5115672;28;20046;-57
2023/10/25 07:42:23;;;;;;;9.07;3.03;;;;;;;1.53;44.97;100125.94;5115308;28;20118;-55
2023/10/25 07:44:48;;;;;;;7.07;3.30;;;;;;;1.46;45.06;100137.66;5115042;28;20074;-56
2023/10/25 07:47:14;;;;;;;8.95;3.25;;;;;;;1.57;45.27;100145.16;5114844;28;20073;-59
2023/10/25 07:49:45;;;;;;;5.57;3.13;;;;;;;1.72;44.96;100146.34;5115165;27;20027;-56
2023/10/25 07:52:11;;;;;;;7.28;2.67;;;;;;;1.85;45.10;100141.44;5113839;28;20031;-60
2023/10/25 07:54:36;;;;;;;8.02;3.05;;;;;;;1.68;44.55;100086.66;5114991;28;20088;-60
2023/10/25 07:57:02;;;;;;;9.07;2.92;;;;;;;1.94;44.43;100127.88;5114691;28;20110;-62
2023/10/25 07:59:27;;;;;;;7.15;3.55;;;;;;;1.91;44.58;100135.91;5114047;28;20023;-59
2023/10/25 08:01:54;;;;;;;5.03;3.13;;;;;;;1.87;44.41;100129.03;5114760;28;20031;-59
2023/10/25 08:04:20;;;;;;;10.30;2.92;;;;;;;1.89;44.84;100137.75;5113561;28;20110;-61
2023/10/25 08:06:45;;;;;;;5.43;3.08;;;;;;;1.50;44.79;100082.97;5113738;28;20532;-58
2023/10/25 08:09:11;;;;;;;7.97;3.47;;;;;;;1.70;44.89;100150.81;5113641;28;20080;-60
2023/10/25 08:11:37;;;;;;;6.10;3.25;;;;;;;1.70;45.53;100142.91;5114581;28;20040;-59
2023/10/25 08:14:03;;;;;;;8.77;3.40;;;;;;;1.68;45.15;100140.31;5114343;28;20038;-63
2023/10/25 08:16:29;;;;;;;4.53;2.85;;;;;;;1.67;45.09;100149.16;5114704;28;20366;-61
2023/10/25 08:18:54;;;;;;;8.18;3.03;;;;;;;1.75;45.43;100151.50;5096588;28;20092;-61
2023/10/25 08:21:20;;;;;;;6.07;2.80;;;;;;;1.82;45.24;100145.06;5114367;28;20054;-62
2023/10/25 08:23:47;;;;;;;4.38;2.90;;;;;;;1.86;44.83;100159.84;5113559;28;20051;-61
2023/10/25 08:26:16;;;;;;;4.53;2.92;;;;;;;1.81;44.74;100135.41;5114262;28;20044;-60
2023/10/25 08:28:44;;;;;;;7.30;2.95;;;;;;;1.93;44.92;100151.69;5113422;28;20110;-57
2023/10/25 08:31:13;;;;;;;11.55;3.00;;;;;;;1.92;45.21;100147.31;5114306;28;20455;-60
2023/10/25 08:33:39;;;;;;;6.68;3.00;;;;;;;1.96;44.48;100156.88;5114039;28;20040;-61
2023/10/25 08:36:05;;;;;;;5.78;2.75;;;;;;;1.94;44.81;100154.28;5114027;28;20024;-61
2023/10/25 08:38:30;;;;;;;4.10;2.95;;;;;;;1.90;44.85;100141.25;5114686;28;20095;-60
2023/10/25 08:41:06;;;;;;;7.43;2.97;;;;;;;1.97;45.16;100159.44;5114223;28;20035;-61
2023/10/25 08:43:33;;;;;;;12.45;3.80;;;;;;;1.99;45.29;100154.09;5114352;28;20058;-61
2023/10/25 08:46:00;;;;;;;13.18;3.10;;;;;;;2.01;45.11;100163.66;5113127;28;20110;-59
2023/10/25 08:48:26;;;;;;;4.93;2.92;;;;;;;2.13;43.60;100156.19;5114240;28;20026;-61
2023/10/25 08:50:52;;;;;;;7.15;2.70;;;;;;;2.18;43.25;100154.22;5113726;28;20035;-59
2023/10/25 08:53:23;;;;;;;4.78;2.35;;;;;;;2.02;43.85;100156.63;5113612;28;20169;-60
2023/10/25 08:55:52;;;;;;;4.85;2.58;;;;;;;1.80;44.14;100149.53;5113826;28;20042;-60
2023/10/25 08:58:19;;;;;;;6.28;2.88;;;;;;;1.66;43.66;100149.19;5113716;28;20167;-58
2023/10/25 09:00:44;;;;;;;4.95;2.67;;;;;;;1.53;44.48;100162.00;5112749;28;20036;-57
2023/10/25 09:03:32;;;;;;;4.05;2.42;;;;;;;1.65;45.03;100158.03;5113408;28;20028;-60
2023/10/25 09:06:04;;;;;;;5.13;3.28;;;;;;;1.09;45.75;100110.00;5113670;28;20031;-61
2023/10/25 09:08:30;;;;;;;5.30;3.30;;;;;;;1.62;44.82;100152.88;5112900;28;20027;-60
2023/10/25 09:11:08;;;;;;;8.77;3.30;;;;;;;1.46;45.53;100164.03;5113666;28;20042;-58
2023/10/25 09:13:38;;;;;;;7.00;2.67;;;;;;;1.40;45.24;100161.59;5113878;28;20067;-61
2023/10/25 09:16:06;;;;;;;6.15;3.13;;;;;;;1.47;45.59;100162.25;5113936;28;20354;-59
2023/10/25 09:18:33;;;;;;;5.95;2.85;;;;;;;1.51;46.12;100170.00;5113661;28;20023;-57
2023/10/25 09:20:59;;;;;;;7.03;2.42;;;;;;;1.47;45.70;100163.13;5113214;28;20365;-60
2023/10/25 09:23:25;;;;;;;8.38;2.30;;;;;;;1.51;45.82;100154.16;5113121;28;20036;-61
2023/10/25 09:25:51;;;;;;;10.02;2.72;;;;;;;1.58;46.09;100155.63;5113587;28;20035;-58
2023/10/25 09:28:27;;;;;;;8.65;3.15;;;;;;;1.80;45.48;100153.94;5113305;28;20040;-58
2023/10/25 09:30:55;;;;;;;6.00;3.00;;;;;;;1.84;44.95;100156.41;5113326;28;20408;-60
2023/10/25 09:33:21;;;;;;;8.45;2.85;;;;;;;1.66;45.08;100130.72;5112793;28;20347;-60
2023/10/25 09:35:48;;;;;;;7.43;2.90;;;;;;;1.81;44.90;100159.19;5113950;28;20038;-62
2023/10/25 09:38:14;;;;;;;5.78;2.70;;;;;;;1.72;44.31;100163.03;5113549;28;20027;-60
2023/10/25 09:40:41;;;;;;;6.32;2.97;;;;;;;1.88;43.54;100148.38;5112160;28;20365;-61
2023/10/25 09:43:15;;;;;;;5.75;2.80;;;;;;;1.92;43.55;100149.97;5113476;28;20055;-61
2023/10/25 09:45:42;;;;;;;5.30;2.50;;;;;;;1.63;43.87;100154.59;5112579;28;20039;-61
2023/10/25 09:48:13;;;;;;;4.43;2.22;;;;;;;1.61;43.74;100159.06;5113206;28;20057;-58
2023/10/25 09:50:46;;;;;;;4.90;2.53;;;;;;;1.54;44.24;100169.88;5113268;28;20036;-60
2023/10/25 09:53:25;;;;;;;7.38;2.50;;;;;;;1.16;44.81;100106.19;5112954;28;20036;-60
2023/10/25 09:56:00;;;;;;;6.97;2.47;;;;;;;1.54;44.59;100145.25;5111723;28;20420;-59
2023/10/25 09:58:27;;;;;;;5.22;2.63;;;;;;;1.51;44.75;100140.97;5112887;28;20034;-62
2023/10/25 10:00:52;;;;;;;5.78;2.83;;;;;;;1.54;44.45;100134.69;5113032;28;20023;-59
2023/10/25 10:03:42;;;;;;;7.78;3.10;;;;;;;1.94;43.41;100132.31;5112603;28;20046;-61
2023/10/25 10:06:35;;;;;;;4.68;2.58;;;;;;;1.73;43.93;100132.22;5112971;28;20106;-58
2023/10/25 10:09:12;;;;;;;4.38;2.17;;;;;;;1.69;44.65;100131.47;5111972;28;20028;-57
2023/10/25 10:11:49;;;;;;;9.38;2.53;;;;;;;1.78;44.36;100129.38;5112746;28;20027;-60
2023/10/25 10:14:35;;;;;;;6.57;2.80;;;;;;;1.95;44.06;100134.88;5111855;28;20130;-61
2023/10/25 10:17:15;;;;;;;4.68;2.80;;;;;;;2.06;44.31;100126.50;5112840;28;20039;-58
2023/10/25 10:19:49;;;;;;;4.88;2.33;;;;;;;2.00;43.66;100124.13;5113003;28;20028;-62
2023/10/25 10:22:16;;;;;;;4.90;2.40;;;;;;;1.96;44.05;100110.19;5112650;28;20068;-61
2023/10/25 10:24:47;;;;;;;4.80;2.55;;;;;;;2.07;43.87;100112.38;5095177;28;20054;-62
2023/10/25 10:27:15;;;;;;;4.57;2.50;;;;;;;2.27;42.81;100116.00;5111863;28;20126;-57
2023/10/25 10:29:43;;;;;;;7.15;2.58;;;;;;;2.11;42.68;100098.13;5112861;28;20052;-61
2023/10/25 10:32:09;;;;;;;7.18;3.05;;;;;;;2.11;42.87;100111.34;5112849;28;20047;-62
2023/10/25 10:34:58;;;;;;;4.25;2.45;;;;;;;2.06;43.20;100108.03;5111791;28;20034;-60
2023/10/25 10:37:26;;;;;;;7.38;3.30;;;;;;;1.76;42.68;100063.47;5112239;28;20074;-60
2023/10/25 10:39:57;;;;;;;5.22;2.95;;;;;;;1.83;43.41;100104.53;5112563;28;20421;-61
2023/10/25 10:42:36;;;;;;;2.55;2.05;;;;;;;1.99;42.91;100115.31;5112942;28;20426;-60
2023/10/25 10:45:22;;;;;;;4.47;2.78;;;;;;;1.90;42.78;100113.06;5113354;28;20350;-61
2023/10/25 10:47:55;;;;;;;5.90;2.95;;;;;;;1.70;43.66;100100.69;5116076;28;20030;-62
2023/10/25 10:50:22;;;;;;;5.32;2.95;;;;;;;1.72;44.06;100099.66;5116136;28;20046;-61
2023/10/25 10:52:50;;;;;;;6.55;2.72;;;;;;;1.84;43.05;100092.19;5116933;28;20039;-61
2023/10/25 10:55:18;;;;;;;3.50;2.40;;;;;;;2.02;43.39;100093.22;5114739;28;20031;-57
2023/10/25 10:57:45;;;;;;;4.95;2.83;;;;;;;2.22;42.95;100087.13;5115962;28;20118;-61
2023/10/25 11:00:13;;;;;;;4.25;2.60;;;;;;;2.25;42.33;100072.94;5116381;28;20059;-60
2023/10/25 11:02:49;;;;;;;5.05;3.00;;;;;;;2.59;42.65;100089.97;5116951;28;20096;-60
2023/10/25 11:05:19;;;;;;;8.60;2.63;;;;;;;2.41;42.37;100041.41;5115926;28;20369;-62
2023/10/25 11:07:47;;;;;;;5.55;2.85;;;;;;;2.80;41.75;100097.91;5115981;28;20106;-60
2023/10/25 11:10:12;;;;;;;4.68;3.13;;;;;;;2.61;41.81;100101.34;5115386;28;20084;-57
2023/10/25 11:12:39;;;;;;;8.27;3.00;;;;;;;2.35;42.16;100087.47;5115347;28;20115;-60
2023/10/25 11:15:05;;;;;;;2.70;2.17;;;;;;;2.29;42.01;100095.66;5115611;28;20036;-61
2023/10/25 11:17:34;;;;;;;5.47;2.90;;;;;;;2.23;42.39;100094.13;5115478;28;20434;-58
2023/10/25 11:20:01;;;;;;;5.90;3.17;;;;;;;2.28;42.65;100083.38;5115812;28;20035;-59
2023/10/25 11:22:30;;;;;;;7.18;2.95;;;;;;;1.96;43.06;100035.38;5115645;28;20038;-59
2023/10/25 11:24:58;;;;;;;5.15;3.10;;;;;;;2.38;42.47;100089.13;5114676;28;20104;-61
2023/10/25 11:27:31;;;;;;;9.07;2.90;;;;;;;2.43;42.63;100084.50;5115193;28;20051;-63
2023/10/25 11:29:56;;;;;;;9.35;2.90;;;;;;;2.38;42.53;100092.59;5115656;28;20024;-62
2023/10/25 11:32:22;;;;;;;5.72;3.05;;;;;;;2.32;42.91;100100.81;5115482;28;20119;-59
2023/10/25 11:34:52;;;;;;;9.38;3.20;;;;;;;2.30;42.57;100097.38;5114490;28;20032;-59
2023/10/25 11:37:19;;;;;;;11.02;3.00;;;;;;;2.24;42.26;100048.28;5115108;28;20031;-62